createdAt,value
2023-01-17T00:00:45.079Z,4.40
2023-01-17T00:01:47.230Z,4.40
2023-01-17T00:02:49.121Z,4.40
2023-01-17T00:04:09.318Z,4.40
2023-01-17T00:05:29.580Z,4.40
2023-01-17T00:06:49.717Z,4.40
2023-01-17T00:08:10.270Z,4.40
2023-01-17T00:09:32.341Z,4.40
2023-01-17T00:10:34.616Z,4.40
2023-01-17T00:11:36.398Z,4.40
2023-01-17T00:12:38.282Z,4.40
2023-01-17T00:13:40.080Z,4.40
2023-01-17T00:14:41.820Z,4.40
2023-01-17T00:15:43.581Z,4.30
2023-01-17T00:16:45.349Z,4.30
2023-01-17T00:17:48.330Z,4.30
2023-01-17T00:19:10.099Z,4.30
2023-01-17T00:20:35.315Z,4.30
2023-01-17T00:21:55.771Z,4.30
2023-01-17T00:23:16.197Z,4.30
2023-01-17T00:24:36.616Z,4.30
2023-01-17T00:25:58.088Z,4.30
2023-01-17T00:27:14.951Z,4.30
2023-01-17T00:28:17.643Z,4.30
2023-01-17T00:29:19.723Z,4.30
2023-01-17T00:30:21.774Z,4.20
2023-01-17T00:31:23.776Z,4.30
2023-01-17T00:32:25.763Z,4.20
2023-01-17T00:33:27.809Z,4.30
2023-01-17T00:34:32.681Z,4.20
2023-01-17T00:35:35.311Z,4.20
2023-01-17T00:36:37.119Z,4.20
2023-01-17T00:37:38.836Z,4.20
2023-01-17T00:38:41.149Z,4.20
2023-01-17T00:39:42.883Z,4.10
2023-01-17T00:40:45.780Z,4.20
2023-01-17T00:41:47.792Z,4.10
2023-01-17T00:42:49.531Z,4.10
2023-01-17T00:44:09.877Z,4.00
2023-01-17T00:45:30.188Z,4.00
2023-01-17T00:46:50.657Z,3.90
2023-01-17T00:48:11.127Z,3.80
2023-01-17T00:49:31.731Z,3.80
2023-01-17T00:50:52.368Z,3.70
2023-01-17T00:52:13.257Z,3.70
2023-01-17T00:53:34.360Z,3.60
2023-01-17T00:54:54.934Z,3.50
2023-01-17T00:56:18.430Z,3.50
2023-01-17T00:57:39.201Z,3.40
2023-01-17T00:58:59.390Z,3.40
2023-01-17T01:00:19.712Z,3.30
2023-01-17T01:01:40.150Z,3.30
2023-01-17T01:03:01.065Z,3.20
2023-01-17T01:04:21.434Z,3.20
2023-01-17T01:05:42.611Z,3.10
2023-01-17T01:07:03.009Z,3.10
2023-01-17T01:08:44.893Z,3.10
2023-01-17T01:10:04.969Z,3.10
2023-01-17T01:11:26.834Z,3.10
2023-01-17T01:12:48.230Z,3.10
2023-01-17T01:14:08.488Z,3.10
2023-01-17T01:15:29.137Z,3.10
2023-01-17T01:16:49.370Z,3.10
2023-01-17T01:18:09.799Z,3.10
2023-01-17T01:19:30.439Z,3.00
2023-01-17T01:20:51.631Z,3.00
2023-01-17T01:22:12.034Z,3.00
2023-01-17T01:23:32.269Z,2.90
2023-01-17T01:24:53.655Z,2.90
2023-01-17T01:26:13.964Z,2.90
2023-01-17T01:27:34.574Z,2.80
2023-01-17T01:28:55.042Z,2.80
2023-01-17T01:30:15.892Z,2.80
2023-01-17T01:31:36.778Z,2.80
2023-01-17T01:32:57.594Z,2.80
2023-01-17T01:33:59.398Z,2.70
2023-01-17T01:35:01.217Z,2.70
2023-01-17T01:36:03.045Z,2.70
2023-01-17T01:37:04.850Z,2.70
2023-01-17T01:38:06.692Z,2.70
2023-01-17T01:39:08.689Z,2.70
2023-01-17T01:40:11.066Z,2.70
2023-01-17T01:41:12.975Z,2.60
2023-01-17T01:42:15.918Z,2.60
2023-01-17T01:43:21.089Z,2.50
2023-01-17T01:44:52.480Z,2.50
2023-01-17T01:45:58.219Z,2.50
2023-01-17T01:47:00.845Z,2.50
2023-01-17T01:48:32.213Z,2.50
2023-01-17T01:49:34.191Z,2.40
2023-01-17T01:50:37.602Z,2.40
2023-01-17T01:51:42.810Z,2.40
2023-01-17T01:52:48.898Z,2.40
2023-01-17T01:53:55.056Z,2.40
2023-01-17T01:55:01.144Z,2.40
2023-01-17T01:56:05.623Z,2.30
2023-01-17T01:57:13.362Z,2.30
2023-01-17T01:58:27.392Z,2.30
2023-01-17T01:59:31.021Z,2.30
2023-01-17T02:00:38.338Z,2.30
2023-01-17T02:01:40.351Z,2.30
2023-01-17T02:02:43.981Z,2.30
2023-01-17T02:03:47.071Z,2.30
2023-01-17T02:04:50.177Z,2.30
2023-01-17T02:05:52.617Z,2.30
2023-01-17T02:07:02.480Z,2.30
2023-01-17T02:08:10.585Z,2.30
2023-01-17T02:09:14.306Z,2.30
2023-01-17T02:10:16.655Z,2.20
2023-01-17T02:11:19.055Z,2.30
2023-01-17T02:12:21.814Z,2.30
2023-01-17T02:13:23.645Z,2.30
2023-01-17T02:14:25.489Z,2.30
2023-01-17T02:15:43.981Z,2.30
2023-01-17T02:17:16.680Z,2.40
2023-01-17T02:18:49.333Z,2.40
2023-01-17T02:20:12.571Z,2.40
2023-01-17T02:21:39.703Z,2.40
2023-01-17T02:23:02.723Z,2.40
2023-01-17T02:24:10.043Z,2.40
2023-01-17T02:25:33.312Z,2.30
2023-01-17T02:26:53.011Z,2.30
2023-01-17T02:28:23.573Z,2.30
2023-01-17T02:29:44.077Z,2.30
2023-01-17T02:30:54.538Z,2.30
2023-01-17T02:32:08.619Z,2.30
2023-01-17T02:33:32.851Z,2.30
2023-01-17T02:34:56.728Z,2.30
2023-01-17T02:36:25.927Z,2.40
2023-01-17T02:37:45.684Z,2.40
2023-01-17T02:38:56.336Z,2.40
2023-01-17T02:40:10.098Z,2.40
2023-01-17T02:41:19.630Z,2.40
2023-01-17T02:42:26.585Z,2.40
2023-01-17T02:43:28.762Z,2.40
2023-01-17T02:44:31.121Z,2.40
2023-01-17T02:45:34.316Z,2.40
2023-01-17T02:46:56.262Z,2.40
2023-01-17T02:47:58.396Z,2.50
2023-01-17T02:49:00.624Z,2.40
2023-01-17T02:50:17.843Z,2.50
2023-01-17T02:51:50.399Z,2.50
2023-01-17T02:53:31.165Z,2.50
2023-01-17T02:54:50.848Z,2.50
2023-01-17T02:55:55.622Z,2.50
2023-01-17T02:57:34.499Z,2.50
2023-01-17T02:59:19.588Z,2.50
2023-01-17T03:00:39.001Z,2.40
2023-01-17T03:01:56.953Z,2.40
2023-01-17T03:03:08.011Z,2.30
2023-01-17T03:04:21.673Z,2.30
2023-01-17T03:05:50.136Z,2.30
2023-01-17T03:07:00.459Z,2.20
2023-01-17T03:08:04.325Z,2.20
2023-01-17T03:09:07.354Z,2.20
2023-01-17T03:10:11.367Z,2.20
2023-01-17T03:11:14.793Z,2.20
2023-01-17T03:12:16.868Z,2.20
2023-01-17T03:13:18.764Z,2.10
2023-01-17T03:14:20.883Z,2.10
2023-01-17T03:15:22.780Z,2.10
2023-01-17T03:16:27.565Z,2.10
2023-01-17T03:17:32.989Z,2.10
2023-01-17T03:18:34.923Z,2.10
2023-01-17T03:19:36.734Z,2.00
2023-01-17T03:20:38.703Z,2.00
2023-01-17T03:21:40.931Z,2.00
2023-01-17T03:22:42.676Z,2.00
2023-01-17T03:23:44.514Z,2.00
2023-01-17T03:24:46.273Z,2.00
2023-01-17T03:25:48.089Z,2.00
2023-01-17T03:26:50.429Z,2.00
2023-01-17T03:27:52.317Z,2.00
2023-01-17T03:28:54.025Z,2.00
2023-01-17T03:29:55.823Z,2.00
2023-01-17T03:30:57.573Z,2.00
2023-01-17T03:31:59.338Z,2.00
2023-01-17T03:33:01.158Z,2.00
2023-01-17T03:34:02.979Z,2.00
2023-01-17T03:35:05.394Z,1.90
2023-01-17T03:36:07.602Z,1.90
2023-01-17T03:37:09.422Z,1.90
2023-01-17T03:38:11.343Z,1.90
2023-01-17T03:39:13.119Z,1.80
2023-01-17T03:40:15.010Z,1.80
2023-01-17T03:41:16.972Z,1.70
2023-01-17T03:42:18.792Z,1.70
2023-01-17T03:43:21.236Z,1.60
2023-01-17T03:44:26.463Z,1.60
2023-01-17T03:45:28.284Z,1.60
2023-01-17T03:46:30.822Z,1.60
2023-01-17T03:47:34.395Z,1.60
2023-01-17T03:48:36.185Z,1.60
2023-01-17T03:49:39.144Z,1.60
2023-01-17T03:50:41.021Z,1.60
2023-01-17T03:51:42.947Z,1.60
2023-01-17T03:52:44.718Z,1.60
2023-01-17T03:53:47.068Z,1.60
2023-01-17T03:54:49.527Z,1.70
2023-01-17T03:55:51.296Z,1.60
2023-01-17T03:56:53.142Z,1.70
2023-01-17T03:57:54.890Z,1.60
2023-01-17T03:58:58.506Z,1.70
2023-01-17T04:00:00.321Z,1.70
2023-01-17T04:01:02.146Z,1.60
2023-01-17T04:02:04.203Z,1.70
2023-01-17T04:03:06.042Z,1.70
2023-01-17T04:04:07.859Z,1.70
2023-01-17T04:05:09.714Z,1.70
2023-01-17T04:06:11.517Z,1.70
2023-01-17T04:07:13.367Z,1.60
2023-01-17T04:08:15.110Z,1.60
2023-01-17T04:09:17.055Z,1.60
2023-01-17T04:10:18.931Z,1.60
2023-01-17T04:11:20.878Z,1.70
2023-01-17T04:12:22.655Z,1.70
2023-01-17T04:13:24.397Z,1.70
2023-01-17T04:14:26.327Z,1.70
2023-01-17T04:15:28.057Z,1.70
2023-01-17T04:16:32.091Z,1.70
2023-01-17T04:17:34.079Z,1.80
2023-01-17T04:18:35.835Z,1.80
2023-01-17T04:19:37.756Z,1.80
2023-01-17T04:20:40.739Z,1.90
2023-01-17T04:21:42.503Z,1.90
2023-01-17T04:22:44.526Z,1.90
2023-01-17T04:23:46.982Z,2.00
2023-01-17T04:24:48.923Z,1.90
2023-01-17T04:25:51.426Z,1.90
2023-01-17T04:26:53.292Z,1.90
2023-01-17T04:27:55.132Z,1.90
2023-01-17T04:28:57.035Z,1.90
2023-01-17T04:29:58.765Z,1.90
2023-01-17T04:31:00.883Z,1.80
2023-01-17T04:32:02.980Z,1.80
2023-01-17T04:33:04.742Z,1.80
2023-01-17T04:34:06.582Z,1.90
2023-01-17T04:35:09.554Z,1.80
2023-01-17T04:36:11.580Z,1.80
2023-01-17T04:37:13.719Z,1.80
2023-01-17T04:38:15.482Z,1.80
2023-01-17T04:39:17.236Z,1.80
2023-01-17T04:40:19.322Z,1.80
2023-01-17T04:41:21.128Z,1.80
2023-01-17T04:42:23.041Z,1.80
2023-01-17T04:43:24.920Z,1.80
2023-01-17T04:44:26.669Z,1.80
2023-01-17T04:45:28.384Z,1.80
2023-01-17T04:46:30.334Z,1.80
2023-01-17T04:47:34.272Z,1.80
2023-01-17T04:48:36.476Z,1.70
2023-01-17T04:49:38.244Z,1.70
2023-01-17T04:50:40.341Z,1.70
2023-01-17T04:51:42.118Z,1.70
2023-01-17T04:52:44.013Z,1.70
2023-01-17T04:53:45.866Z,1.70
2023-01-17T04:54:50.929Z,1.60
2023-01-17T04:55:52.755Z,1.60
2023-01-17T04:56:54.927Z,1.60
2023-01-17T04:57:56.713Z,1.60
2023-01-17T04:58:59.146Z,1.60
2023-01-17T05:00:01.024Z,1.60
2023-01-17T05:01:08.365Z,1.60
2023-01-17T05:02:10.983Z,1.60
2023-01-17T05:03:12.839Z,1.60
2023-01-17T05:04:14.717Z,1.60
2023-01-17T05:05:16.582Z,1.60
2023-01-17T05:06:18.563Z,1.60
2023-01-17T05:07:20.387Z,1.60
2023-01-17T05:08:22.102Z,1.60
2023-01-17T05:09:24.156Z,1.60
2023-01-17T05:10:26.405Z,1.60
2023-01-17T05:11:28.245Z,1.60
2023-01-17T05:12:30.094Z,1.70
2023-01-17T05:13:32.269Z,1.60
2023-01-17T05:14:34.568Z,1.70
2023-01-17T05:15:36.669Z,1.70
2023-01-17T05:16:38.568Z,1.70
2023-01-17T05:17:40.360Z,1.70
2023-01-17T05:18:42.105Z,1.70
2023-01-17T05:19:43.848Z,1.70
2023-01-17T05:20:45.751Z,1.70
2023-01-17T05:21:47.451Z,1.60
2023-01-17T05:22:56.994Z,1.60
2023-01-17T05:23:59.063Z,1.60
2023-01-17T05:25:00.865Z,1.60
2023-01-17T05:26:03.154Z,1.50
2023-01-17T05:27:04.901Z,1.50
2023-01-17T05:28:06.719Z,1.40
2023-01-17T05:29:12.534Z,1.40
2023-01-17T05:30:14.548Z,1.40
2023-01-17T05:31:16.677Z,1.40
2023-01-17T05:32:18.539Z,1.30
2023-01-17T05:33:20.450Z,1.30
2023-01-17T05:34:22.698Z,1.30
2023-01-17T05:35:32.656Z,1.30
2023-01-17T05:36:34.406Z,1.20
2023-01-17T05:37:36.176Z,1.20
2023-01-17T05:38:38.020Z,1.20
2023-01-17T05:39:39.738Z,1.20
2023-01-17T05:40:41.771Z,1.20
2023-01-17T05:41:43.672Z,1.20
2023-01-17T05:42:50.208Z,1.20
2023-01-17T05:43:52.745Z,1.20
2023-01-17T05:44:55.067Z,1.20
2023-01-17T05:45:56.888Z,1.20
2023-01-17T05:46:58.810Z,1.20
2023-01-17T05:48:01.217Z,1.20
2023-01-17T05:49:03.087Z,1.20
2023-01-17T05:50:05.108Z,1.20
2023-01-17T05:51:06.928Z,1.30
2023-01-17T05:52:09.839Z,1.30
2023-01-17T05:53:14.065Z,1.30
2023-01-17T05:54:18.026Z,1.30
2023-01-17T05:55:20.980Z,1.40
2023-01-17T05:56:22.759Z,1.40
2023-01-17T05:57:24.506Z,1.40
2023-01-17T05:58:26.453Z,1.40
2023-01-17T05:59:36.931Z,1.50
2023-01-17T06:00:39.419Z,1.50
2023-01-17T06:01:41.183Z,1.50
2023-01-17T06:02:43.477Z,1.60
2023-01-17T06:03:45.283Z,1.60
2023-01-17T06:04:47.092Z,1.60
2023-01-17T06:05:50.129Z,1.70
2023-01-17T06:06:52.088Z,1.70
2023-01-17T06:07:54.801Z,1.70
2023-01-17T06:08:57.361Z,1.70
2023-01-17T06:09:59.103Z,1.70
2023-01-17T06:11:01.011Z,1.70
2023-01-17T06:12:02.793Z,1.70
2023-01-17T06:13:11.767Z,1.60
2023-01-17T06:14:13.563Z,1.60
2023-01-17T06:15:18.187Z,1.60
2023-01-17T06:16:19.989Z,1.60
2023-01-17T06:17:21.908Z,1.60
2023-01-17T06:18:24.194Z,1.60
2023-01-17T06:19:26.347Z,1.50
2023-01-17T06:20:28.543Z,1.60
2023-01-17T06:21:31.813Z,1.50
2023-01-17T06:22:34.307Z,1.60
2023-01-17T06:23:36.301Z,1.50
2023-01-17T06:24:38.153Z,1.50
2023-01-17T06:25:43.734Z,1.50
2023-01-17T06:26:45.515Z,1.50
2023-01-17T06:27:47.369Z,1.50
2023-01-17T06:28:49.178Z,1.50
2023-01-17T06:29:51.030Z,1.50
2023-01-17T06:30:53.598Z,1.50
2023-01-17T06:31:55.417Z,1.50
2023-01-17T06:32:58.662Z,1.50
2023-01-17T06:34:03.634Z,1.50
2023-01-17T06:35:05.904Z,1.50
2023-01-17T06:36:08.812Z,1.50
2023-01-17T06:37:11.901Z,1.40
2023-01-17T06:38:13.775Z,1.40
2023-01-17T06:39:15.595Z,1.40
2023-01-17T06:40:17.836Z,1.40
2023-01-17T06:41:19.688Z,1.40
2023-01-17T06:42:23.067Z,1.30
2023-01-17T06:43:24.876Z,1.40
2023-01-17T06:44:26.940Z,1.40
2023-01-17T06:45:29.947Z,1.30
2023-01-17T06:46:31.766Z,1.30
2023-01-17T06:47:38.923Z,1.30
2023-01-17T06:48:44.011Z,1.30
2023-01-17T06:49:46.142Z,1.30
2023-01-17T06:50:49.753Z,1.30
2023-01-17T06:51:51.670Z,1.30
2023-01-17T06:53:02.504Z,1.30
2023-01-17T06:54:04.533Z,1.20
2023-01-17T06:55:07.535Z,1.20
2023-01-17T06:56:10.498Z,1.20
2023-01-17T06:57:12.356Z,1.20
2023-01-17T06:58:14.228Z,1.20
2023-01-17T06:59:16.087Z,1.20
2023-01-17T07:00:18.309Z,1.20
2023-01-17T07:01:20.284Z,1.20
2023-01-17T07:02:22.177Z,1.20
2023-01-17T07:03:26.074Z,1.20
2023-01-17T07:04:28.117Z,1.30
2023-01-17T07:05:32.360Z,1.30
2023-01-17T07:06:37.055Z,1.30
2023-01-17T07:07:39.108Z,1.30
2023-01-17T07:08:40.922Z,1.30
2023-01-17T07:09:43.933Z,1.30
2023-01-17T07:10:47.480Z,1.30
2023-01-17T07:11:51.805Z,1.30
2023-01-17T07:13:00.746Z,1.30
2023-01-17T07:14:02.621Z,1.30
2023-01-17T07:15:05.376Z,1.30
2023-01-17T07:16:08.662Z,1.30
2023-01-17T07:17:10.441Z,1.30
2023-01-17T07:18:12.817Z,1.30
2023-01-17T07:19:14.663Z,1.30
2023-01-17T07:20:16.670Z,1.30
2023-01-17T07:21:18.793Z,1.30
2023-01-17T07:22:20.686Z,1.30
2023-01-17T07:23:24.404Z,1.30
2023-01-17T07:24:26.229Z,1.30
2023-01-17T07:25:28.202Z,1.20
2023-01-17T07:26:30.298Z,1.20
2023-01-17T07:27:34.301Z,1.20
2023-01-17T07:28:36.241Z,1.20
2023-01-17T07:29:39.241Z,1.20
2023-01-17T07:30:41.068Z,1.10
2023-01-17T07:31:43.331Z,1.10
2023-01-17T07:32:50.116Z,1.10
2023-01-17T07:33:52.082Z,1.10
2023-01-17T07:34:54.783Z,1.00
2023-01-17T07:35:56.538Z,1.00
2023-01-17T07:36:58.527Z,1.00
2023-01-17T07:38:00.453Z,1.00
2023-01-17T07:39:05.432Z,1.00
2023-01-17T07:40:08.662Z,1.00
2023-01-17T07:41:11.117Z,1.00
2023-01-17T07:42:12.931Z,1.00
2023-01-17T07:43:14.887Z,1.00
2023-01-17T07:44:16.938Z,0.90
2023-01-17T07:45:19.886Z,0.90
2023-01-17T07:46:21.620Z,0.90
2023-01-17T07:47:24.863Z,0.90
2023-01-17T07:48:26.710Z,0.90
2023-01-17T07:49:28.623Z,0.90
2023-01-17T07:50:30.636Z,0.90
2023-01-17T07:51:32.401Z,0.90
2023-01-17T07:52:34.652Z,0.90
2023-01-17T07:53:36.734Z,1.00
2023-01-17T07:54:38.615Z,1.00
2023-01-17T07:55:40.570Z,1.00
2023-01-17T07:56:45.563Z,1.00
2023-01-17T07:57:50.447Z,1.10
2023-01-17T07:58:52.187Z,1.10
2023-01-17T07:59:54.785Z,1.10
2023-01-17T08:01:11.651Z,1.10
2023-01-17T08:02:18.116Z,1.10
2023-01-17T08:03:20.116Z,1.10
2023-01-17T08:04:25.867Z,1.10
2023-01-17T08:05:30.699Z,1.10
2023-01-17T08:06:33.625Z,1.10
2023-01-17T08:07:35.624Z,1.10
2023-01-17T08:08:37.485Z,1.10
2023-01-17T08:09:42.825Z,1.10
2023-01-17T08:10:44.615Z,1.10
2023-01-17T08:11:46.429Z,1.10
2023-01-17T08:12:49.400Z,1.00
2023-01-17T08:13:57.407Z,1.00
2023-01-17T08:14:59.484Z,1.00
2023-01-17T08:16:03.304Z,1.00
2023-01-17T08:17:06.778Z,0.90
2023-01-17T08:18:08.800Z,0.90
2023-01-17T08:19:10.529Z,0.90
2023-01-17T08:20:13.011Z,0.90
2023-01-17T08:21:16.752Z,0.90
2023-01-17T08:22:18.702Z,0.90
2023-01-17T08:23:21.224Z,0.90
2023-01-17T08:24:23.220Z,0.80
2023-01-17T08:25:25.467Z,0.90
2023-01-17T08:26:27.793Z,0.90
2023-01-17T08:27:29.877Z,0.90
2023-01-17T08:28:31.769Z,0.90
2023-01-17T08:29:33.655Z,0.90
2023-01-17T08:30:35.794Z,0.90
2023-01-17T08:31:37.744Z,0.90
2023-01-17T08:32:40.904Z,1.00
2023-01-17T08:33:43.071Z,1.00
2023-01-17T08:34:44.913Z,1.00
2023-01-17T08:35:55.295Z,1.00
2023-01-17T08:36:57.143Z,1.00
2023-01-17T08:38:04.761Z,1.00
2023-01-17T08:39:06.619Z,1.00
2023-01-17T08:40:10.699Z,1.00
2023-01-17T08:41:13.116Z,1.00
2023-01-17T08:42:15.338Z,1.00
2023-01-17T08:43:17.161Z,1.00
2023-01-17T08:44:20.337Z,1.00
2023-01-17T08:45:22.442Z,1.00
2023-01-17T08:46:24.600Z,1.00
2023-01-17T08:47:27.864Z,1.00
2023-01-17T08:48:29.714Z,1.00
2023-01-17T08:49:31.499Z,1.00
2023-01-17T08:50:33.396Z,1.00
2023-01-17T08:51:35.587Z,1.00
2023-01-17T08:52:37.495Z,1.00
2023-01-17T08:53:39.367Z,1.00
2023-01-17T08:54:41.270Z,1.00
2023-01-17T08:55:43.070Z,1.10
2023-01-17T08:56:46.905Z,1.10
2023-01-17T08:57:48.692Z,1.10
2023-01-17T08:58:50.411Z,1.10
2023-01-17T08:59:54.387Z,1.10
2023-01-17T09:01:03.477Z,1.10
2023-01-17T09:02:15.755Z,1.10
2023-01-17T09:03:17.543Z,1.20
2023-01-17T09:04:19.568Z,1.20
2023-01-17T09:05:21.530Z,1.20
2023-01-17T09:06:23.385Z,1.20
2023-01-17T09:07:26.900Z,1.30
2023-01-17T09:08:28.704Z,1.30
2023-01-17T09:09:30.460Z,1.40
2023-01-17T09:10:32.220Z,1.40
2023-01-17T09:11:34.357Z,1.40
2023-01-17T09:12:36.933Z,1.40
2023-01-17T09:13:39.283Z,1.40
2023-01-17T09:14:41.141Z,1.40
2023-01-17T09:15:43.111Z,1.40
2023-01-17T09:16:44.942Z,1.40
2023-01-17T09:17:47.669Z,1.40
2023-01-17T09:18:53.116Z,1.40
2023-01-17T09:19:54.862Z,1.40
2023-01-17T09:20:59.135Z,1.40
2023-01-17T09:22:02.033Z,1.40
2023-01-17T09:23:04.459Z,1.40
2023-01-17T09:24:06.541Z,1.40
2023-01-17T09:25:08.775Z,1.40
2023-01-17T09:26:20.896Z,1.40
2023-01-17T09:27:22.885Z,1.50
2023-01-17T09:28:28.355Z,1.50
2023-01-17T09:29:30.744Z,1.60
2023-01-17T09:30:32.697Z,1.60
2023-01-17T09:31:34.961Z,1.60
2023-01-17T09:32:36.802Z,1.60
2023-01-17T09:33:41.708Z,1.70
2023-01-17T09:34:44.135Z,1.70
2023-01-17T09:35:47.300Z,1.70
2023-01-17T09:36:49.111Z,1.70
2023-01-17T09:37:51.766Z,1.70
2023-01-17T09:39:00.346Z,1.70
2023-01-17T09:40:03.200Z,1.80
2023-01-17T09:41:22.035Z,1.80
2023-01-17T09:42:40.853Z,1.80
2023-01-17T09:44:07.714Z,1.90
2023-01-17T09:45:19.013Z,1.90
2023-01-17T09:46:25.475Z,1.90
2023-01-17T09:47:39.645Z,1.90
2023-01-17T09:48:44.083Z,1.90
2023-01-17T09:49:47.132Z,1.90
2023-01-17T09:50:57.396Z,1.90
2023-01-17T09:51:59.770Z,2.00
2023-01-17T09:53:05.484Z,2.00
2023-01-17T09:54:37.025Z,2.00
2023-01-17T09:56:07.557Z,2.00
2023-01-17T09:57:19.705Z,2.10
2023-01-17T09:58:44.612Z,2.10
2023-01-17T10:00:06.787Z,2.10
2023-01-17T10:01:20.362Z,2.10
2023-01-17T10:02:26.545Z,2.20
2023-01-17T10:03:42.605Z,2.20
2023-01-17T10:04:58.648Z,2.20
2023-01-17T10:06:18.658Z,2.20
2023-01-17T10:07:50.953Z,2.20
2023-01-17T10:09:25.675Z,2.20
2023-01-17T10:10:47.433Z,2.10
2023-01-17T10:12:25.092Z,2.10
2023-01-17T10:13:34.792Z,2.10
2023-01-17T10:14:50.609Z,2.10
2023-01-17T10:16:01.015Z,2.00
2023-01-17T10:17:13.695Z,2.10
2023-01-17T10:18:37.173Z,2.10
2023-01-17T10:19:57.484Z,2.10
2023-01-17T10:21:17.207Z,2.20
2023-01-17T10:22:43.645Z,2.20
2023-01-17T10:24:18.737Z,2.20
2023-01-17T10:25:25.138Z,2.30
2023-01-17T10:26:27.936Z,2.40
2023-01-17T10:27:39.747Z,2.50
2023-01-17T10:28:49.000Z,2.50
2023-01-17T10:29:51.791Z,2.60
2023-01-17T10:31:18.151Z,2.70
2023-01-17T10:32:27.011Z,2.90
2023-01-17T10:33:41.733Z,2.90
2023-01-17T10:34:50.073Z,2.90
2023-01-17T10:35:58.702Z,2.90
2023-01-17T10:37:11.987Z,3.00
2023-01-17T10:38:15.538Z,3.10
2023-01-17T10:39:25.633Z,3.20
2023-01-17T10:40:42.702Z,3.30
2023-01-17T10:42:00.847Z,3.40
2023-01-17T10:43:25.218Z,3.50
2023-01-17T10:45:04.538Z,3.60
2023-01-17T10:46:14.141Z,3.70
2023-01-17T10:47:21.664Z,3.70
2023-01-17T10:48:39.523Z,3.70
2023-01-17T10:49:52.772Z,3.70
2023-01-17T10:51:16.186Z,3.80
2023-01-17T10:52:38.616Z,3.70
2023-01-17T10:54:14.462Z,3.70
2023-01-17T10:55:44.331Z,3.70
2023-01-17T10:56:46.452Z,3.70
2023-01-17T10:57:49.628Z,3.70
2023-01-17T10:59:10.119Z,3.70
2023-01-17T11:00:28.753Z,3.60
2023-01-17T11:01:31.252Z,3.50
2023-01-17T11:02:40.046Z,3.50
2023-01-17T11:03:44.185Z,3.50
2023-01-17T11:04:50.417Z,3.50
2023-01-17T11:06:15.176Z,3.40
2023-01-17T11:07:20.171Z,3.40
2023-01-17T11:08:22.461Z,3.40
2023-01-17T11:09:38.872Z,3.40
2023-01-17T11:10:42.838Z,3.40
2023-01-17T11:11:49.500Z,3.50
2023-01-17T11:12:51.631Z,3.50
2023-01-17T11:13:55.776Z,3.50
2023-01-17T11:15:08.417Z,3.50
2023-01-17T11:16:16.710Z,3.50
2023-01-17T11:17:19.861Z,3.50
2023-01-17T11:18:22.360Z,3.50
2023-01-17T11:19:32.396Z,3.50
2023-01-17T11:20:38.719Z,3.50
2023-01-17T11:21:49.712Z,3.60
2023-01-17T11:23:22.854Z,3.60
2023-01-17T11:24:34.832Z,3.50
2023-01-17T11:25:37.194Z,3.60
2023-01-17T11:26:47.981Z,3.60
2023-01-17T11:28:18.402Z,3.50
2023-01-17T11:29:38.445Z,3.50
2023-01-17T11:30:58.509Z,3.50
2023-01-17T11:32:32.287Z,3.50
2023-01-17T11:33:54.078Z,3.50
2023-01-17T11:35:09.591Z,3.50
2023-01-17T11:36:33.187Z,3.40
2023-01-17T11:37:38.610Z,3.40
2023-01-17T11:38:54.596Z,3.40
2023-01-17T11:40:08.087Z,3.40
2023-01-17T11:41:20.758Z,3.40
2023-01-17T11:42:38.595Z,3.40
2023-01-17T11:43:52.604Z,3.40
2023-01-17T11:44:55.018Z,3.40
2023-01-17T11:46:24.902Z,3.40
2023-01-17T11:47:28.287Z,3.40
2023-01-17T11:48:38.746Z,3.40
2023-01-17T11:49:44.788Z,3.40
2023-01-17T11:51:00.274Z,3.40
2023-01-17T11:52:09.039Z,3.40
2023-01-17T11:53:20.319Z,3.50
2023-01-17T11:54:30.071Z,3.50
2023-01-17T11:55:33.166Z,3.50
2023-01-17T11:56:36.989Z,3.50
2023-01-17T11:57:38.949Z,3.40
2023-01-17T11:58:42.306Z,3.50
2023-01-17T11:59:45.778Z,3.40
2023-01-17T12:00:58.962Z,3.40
2023-01-17T12:02:24.002Z,3.40
2023-01-17T12:04:00.896Z,3.40
2023-01-17T12:05:30.810Z,3.40
2023-01-17T12:07:00.544Z,3.30
2023-01-17T12:08:22.529Z,3.30
2023-01-17T12:09:59.196Z,3.30
2023-01-17T12:11:22.888Z,3.30
2023-01-17T12:13:10.392Z,3.20
2023-01-17T12:14:41.879Z,3.20
2023-01-17T12:15:53.167Z,3.20
2023-01-17T12:17:00.836Z,3.10
2023-01-17T12:18:14.272Z,3.10
2023-01-17T12:19:28.628Z,3.10
2023-01-17T12:20:49.339Z,3.10
2023-01-17T12:22:28.540Z,3.10
2023-01-17T12:24:00.217Z,3.10
2023-01-17T12:25:26.731Z,3.10
2023-01-17T12:26:42.092Z,3.10
2023-01-17T12:28:10.054Z,3.10
2023-01-17T12:29:34.637Z,3.10
2023-01-17T12:31:04.495Z,3.10
2023-01-17T12:32:19.596Z,3.20
2023-01-17T12:33:43.645Z,3.20
2023-01-17T12:35:15.546Z,3.20
2023-01-17T12:36:43.026Z,3.20
2023-01-17T12:37:57.385Z,3.20
2023-01-17T12:39:10.184Z,3.20
2023-01-17T12:40:28.154Z,3.30
2023-01-17T12:41:40.256Z,3.30
2023-01-17T12:42:49.413Z,3.30
2023-01-17T12:43:56.779Z,3.30
2023-01-17T12:45:04.335Z,3.30
2023-01-17T12:46:24.077Z,3.30
2023-01-17T12:47:30.195Z,3.30
2023-01-17T12:48:36.914Z,3.30
2023-01-17T12:49:45.383Z,3.40
2023-01-17T12:51:17.880Z,3.40
2023-01-17T12:52:33.856Z,3.40
2023-01-17T12:54:04.628Z,3.40
2023-01-17T12:55:20.579Z,3.30
2023-01-17T12:56:34.265Z,3.30
2023-01-17T12:57:42.905Z,3.30
2023-01-17T12:59:03.693Z,3.30
2023-01-17T13:00:13.783Z,3.30
2023-01-17T13:01:40.201Z,3.30
2023-01-17T13:02:49.086Z,3.30
2023-01-17T13:04:16.822Z,3.40
2023-01-17T13:05:23.659Z,3.40
2023-01-17T13:06:45.914Z,3.40
2023-01-17T13:07:49.944Z,3.40
2023-01-17T13:08:55.223Z,3.40
2023-01-17T13:10:18.698Z,3.40
2023-01-17T13:11:28.590Z,3.40
2023-01-17T13:12:33.299Z,3.30
2023-01-17T13:13:36.173Z,3.40
2023-01-17T13:14:37.937Z,3.40
2023-01-17T13:15:41.928Z,3.40
2023-01-17T13:16:50.240Z,3.40
2023-01-17T13:18:25.772Z,3.40
2023-01-17T13:19:52.018Z,3.40
2023-01-17T13:21:19.593Z,3.40
2023-01-17T13:22:24.035Z,3.40
2023-01-17T13:23:30.196Z,3.40
2023-01-17T13:24:50.540Z,3.40
2023-01-17T13:25:52.720Z,3.50
2023-01-17T13:27:03.472Z,3.40
2023-01-17T13:28:35.453Z,3.50
2023-01-17T13:29:55.920Z,3.50
2023-01-17T13:31:16.387Z,3.50
2023-01-17T13:32:55.146Z,3.50
2023-01-17T13:34:30.609Z,3.50
2023-01-17T13:35:42.767Z,3.50
2023-01-17T13:37:13.238Z,3.50
2023-01-17T13:38:37.403Z,3.50
2023-01-17T13:40:05.513Z,3.60
2023-01-17T13:41:34.284Z,3.60
2023-01-17T13:42:56.657Z,3.60
2023-01-17T13:44:20.674Z,3.60
2023-01-17T13:45:26.820Z,3.60
2023-01-17T13:46:52.004Z,3.60
2023-01-17T13:48:09.986Z,3.60
2023-01-17T13:49:35.243Z,3.60
2023-01-17T13:50:40.628Z,3.60
2023-01-17T13:52:01.222Z,3.60
2023-01-17T13:53:39.716Z,3.60
2023-01-17T13:54:49.234Z,3.60
2023-01-17T13:55:53.326Z,3.60
2023-01-17T13:57:29.986Z,3.60
2023-01-17T13:58:58.276Z,3.60
2023-01-17T14:00:23.009Z,3.60
2023-01-17T14:01:24.950Z,3.60
2023-01-17T14:02:32.741Z,3.60
2023-01-17T14:03:49.504Z,3.60
2023-01-17T14:05:26.006Z,3.60
2023-01-17T14:06:40.836Z,3.60
2023-01-17T14:08:00.814Z,3.60
2023-01-17T14:09:11.453Z,3.60
2023-01-17T14:10:30.373Z,3.60
2023-01-17T14:11:36.579Z,3.60
2023-01-17T14:12:39.014Z,3.60
2023-01-17T14:13:40.823Z,3.60
2023-01-17T14:14:44.587Z,3.60
2023-01-17T14:15:50.958Z,3.60
2023-01-17T14:16:52.849Z,3.60
2023-01-17T14:18:01.021Z,3.70
2023-01-17T14:19:04.266Z,3.60
2023-01-17T14:20:06.000Z,3.60
2023-01-17T14:21:25.192Z,3.60
2023-01-17T14:22:28.385Z,3.60
2023-01-17T14:23:36.567Z,3.60
2023-01-17T14:24:56.204Z,3.70
2023-01-17T14:26:11.483Z,3.60
2023-01-17T14:27:23.396Z,3.60
2023-01-17T14:28:29.331Z,3.70
2023-01-17T14:29:43.893Z,3.60
2023-01-17T14:30:46.257Z,3.60
2023-01-17T14:31:49.305Z,3.60
2023-01-17T14:33:08.444Z,3.60
2023-01-17T14:34:13.843Z,3.60
2023-01-17T14:35:22.789Z,3.60
2023-01-17T14:36:30.374Z,3.60
2023-01-17T14:37:41.266Z,3.60
2023-01-17T14:38:44.603Z,3.60
2023-01-17T14:39:48.968Z,3.50
2023-01-17T14:40:57.257Z,3.50
2023-01-17T14:41:59.132Z,3.50
2023-01-17T14:43:05.715Z,3.50
2023-01-17T14:44:10.112Z,3.50
2023-01-17T14:45:22.413Z,3.50
2023-01-17T14:46:30.545Z,3.50
2023-01-17T14:47:36.702Z,3.50
2023-01-17T14:48:41.435Z,3.40
2023-01-17T14:49:43.709Z,3.40
2023-01-17T14:50:50.054Z,3.40
2023-01-17T14:52:02.721Z,3.40
2023-01-17T14:53:13.714Z,3.40
2023-01-17T14:54:21.784Z,3.30
2023-01-17T14:55:23.999Z,3.30
2023-01-17T14:56:30.351Z,3.30
2023-01-17T14:57:32.354Z,3.30
2023-01-17T14:58:39.404Z,3.30
2023-01-17T14:59:41.706Z,3.30
2023-01-17T15:00:43.911Z,3.30
2023-01-17T15:02:07.548Z,3.30
2023-01-17T15:03:12.395Z,3.20
2023-01-17T15:04:30.064Z,3.20
2023-01-17T15:05:33.017Z,3.20
2023-01-17T15:06:41.777Z,3.20
2023-01-17T15:07:45.894Z,3.20
2023-01-17T15:08:48.883Z,3.20
2023-01-17T15:09:50.701Z,3.10
2023-01-17T15:11:00.197Z,3.10
2023-01-17T15:12:02.733Z,3.10
2023-01-17T15:13:09.879Z,3.10
2023-01-17T15:14:23.647Z,3.00
2023-01-17T15:15:38.597Z,3.00